Cleveland, OH (44137)

8:43 AM EST on February 06, 2016 (GMT -0500)
Garfield Hts | | Change Station
CLOSE
Current Station
Personal Weather Station
Location: Garfield Heights, OH
Elevation: 908 ft
Nearby Weather Stations

Elev 908 ft 41.41 °N, 81.59 °W | Updated 37 seconds ago

Partly Cloudy
Partly Cloudy
28.0 °F
Feels Like 21 °F
N
6.0
Wind Variable Wind from WSW
Gusts 0.0 mph

Today
High -- | Low -- °F
--% Chance of Precip.
Yesterday
High -- | Low -- °F
Precip. -- in
Pressure 30.31 in
Visibility 8.0 miles
Clouds Scattered Clouds 1700 ft
Windchill 21 °F
Dew Point 25 °F
Humidity 88%
Rainfall 0.00 in
Snow Depth Not available.
7:32 AM 5:48 PM
Waning Crescent, 5% visible
SPECI KBKL 061311Z 23010KT 8SM SCT017 M02/M04 A3031 RMK AO2 T10171044
Pressure 30.31 in
Visibility 8.0 miles
Clouds Scattered Clouds 1700 ft
Windchill 21 °F
Dew Point 25 °F
Humidity 88%
Rainfall 0.00 in
Snow Depth Not available.
7:32 AM 5:48 PM
Waning Crescent, 5% visible
SPECI KBKL 061311Z 23010KT 8SM SCT017 M02/M04 A3031 RMK AO2 T10171044

10-Day Weather Forecast

Almanac

Astronomy

Feb. 06, 2016 Rise Set
Actual Time
Civil Twilight
Nautical Twilight
Astronomical Twilight
Moon
Length of Visible Light
Length of Day
Tomorrow will be .
, % of the Moon is Illuminated

Today's Extremes

State Highs State Lows

Community

WunderPhotos

Upload Photos

1,890,971 photos uploaded!

WunderBlog® & News

Nearby

Air Quality

  Air Quality AQ Index Pollutant
Not available.

Snow Depth

Station Depth Elevation

Earthquake Activity

City Distance Mag. Time & Date
Minimum magnitude displayed is 2.5.

Coastal Water Temperatures

Place Temperature

Stations

Nearby Weather Stations

Station Location Temp. Windchill Dew Point Humidity Wind Precip. Elev Updated Type
                   

Watches & Warnings

There are currently no watches in effect.